Time;durP1;ratioP1;P1;durP2;ratioP2;P2;SDS_P1;SDS_P2;PMS_P1;PMS_P2;Temp;Humidity;BMP_temperature;BMP_pressure;BME280_temperature;BME280_humidity;BME280_pressure;Samples;Min_cycle;Max_cycle;Signal;HPM_P1;HPM_P2
2023/10/21 00:02:11;;;;;;;73.60;22.58;;;;;;;;;;5007981;28;20041;-74
2023/10/21 00:04:37;;;;;;;65.78;24.23;;;;;;;;;;5008405;28;20038;-74
2023/10/21 00:07:03;;;;;;;48.22;22.00;;;;;;;;;;5008473;28;20087;-74
2023/10/21 00:09:29;;;;;;;52.67;22.50;;;;;;;;;;5007561;28;20038;-74
2023/10/21 00:11:56;;;;;;;78.88;25.65;;;;;;;;;;5009040;28;20029;-74
2023/10/21 00:14:22;;;;;;;48.10;21.08;;;;;;;;;;5008106;28;20084;-73
2023/10/21 00:16:49;;;;;;;43.45;20.27;;;;;;;;;;5007134;28;20029;-74
2023/10/21 00:19:16;;;;;;;69.57;24.33;;;;;;;;;;5007258;28;20116;-74
2023/10/21 00:21:42;;;;;;;116.85;30.00;;;;;;;;;;5009133;28;20111;-74
2023/10/21 00:24:08;;;;;;;60.15;23.67;;;;;;;;;;5007393;28;20029;-74
2023/10/21 00:26:47;;;;;;;71.18;25.00;;;;;;;;;;5008786;28;20057;-74
2023/10/21 00:29:13;;;;;;;69.35;24.88;;;;;;;;;;5007921;28;21833;-74
2023/10/21 00:31:39;;;;;;;60.95;24.50;;;;;;;;;;5008478;28;20149;-74
2023/10/21 00:34:05;;;;;;;58.38;23.40;;;;;;;;;;5008328;28;20026;-74
2023/10/21 00:36:31;;;;;;;53.72;22.17;;;;;;;;;;5009975;28;20033;-74
2023/10/21 00:38:57;;;;;;;46.85;22.05;;;;;;;;;;5009023;28;20029;-74
2023/10/21 00:41:24;;;;;;;52.25;22.92;;;;;;;;;;5008176;28;20038;-74
2023/10/21 00:43:50;;;;;;;59.50;23.98;;;;;;;;;;5024523;28;20139;-74
2023/10/21 00:46:17;;;;;;;48.67;21.17;;;;;;;;;;5008604;28;20040;-74
2023/10/21 00:48:43;;;;;;;44.85;21.55;;;;;;;;;;5011549;28;20041;-74
2023/10/21 00:51:10;;;;;;;47.55;22.00;;;;;;;;;;5006714;28;20041;-74
2023/10/21 00:53:36;;;;;;;50.05;22.92;;;;;;;;;;5010551;28;20075;-74
2023/10/21 00:56:03;;;;;;;50.13;21.60;;;;;;;;;;5012231;28;20038;-74
2023/10/21 00:58:32;;;;;;;49.92;21.30;;;;;;;;;;5012440;28;20108;-74
2023/10/21 01:01:01;;;;;;;47.00;21.20;;;;;;;;;;5012421;28;20076;-74
2023/10/21 01:03:28;;;;;;;51.85;21.60;;;;;;;;;;5011926;28;20036;-74
2023/10/21 01:05:54;;;;;;;50.08;21.77;;;;;;;;;;5027042;28;20084;-74
2023/10/21 01:08:20;;;;;;;56.13;22.40;;;;;;;;;;5012013;28;20365;-74
2023/10/21 01:10:47;;;;;;;45.00;20.05;;;;;;;;;;5011145;28;20036;-74
2023/10/21 01:13:13;;;;;;;62.08;21.70;;;;;;;;;;5010915;28;20038;-74
2023/10/21 01:15:39;;;;;;;52.53;21.73;;;;;;;;;;5011709;28;20034;-74
2023/10/21 01:18:08;;;;;;;70.47;24.58;;;;;;;;;;5010701;28;20408;-74
2023/10/21 01:20:35;;;;;;;52.35;22.95;;;;;;;;;;5011367;28;20025;-74
2023/10/21 01:23:02;;;;;;;71.60;26.27;;;;;;;;;;5011431;28;20064;-74
2023/10/21 01:25:29;;;;;;;53.97;23.40;;;;;;;;;;5009486;28;20036;-74
2023/10/21 01:27:55;;;;;;;66.25;26.02;;;;;;;;;;5005278;28;20481;-74
2023/10/21 01:30:21;;;;;;;83.40;27.60;;;;;;;;;;5011299;28;20041;-74
2023/10/21 01:32:48;;;;;;;61.28;25.33;;;;;;;;;;5010733;28;20030;-74
2023/10/21 01:35:14;;;;;;;74.07;27.65;;;;;;;;;;5011237;28;20033;-74
2023/10/21 01:37:40;;;;;;;74.18;28.00;;;;;;;;;;5011355;28;20025;-74
2023/10/21 01:40:09;;;;;;;81.07;28.45;;;;;;;;;;5006242;28;20037;-74
2023/10/21 01:42:36;;;;;;;65.47;27.08;;;;;;;;;;5010019;28;20029;-74
2023/10/21 01:45:02;;;;;;;81.47;28.17;;;;;;;;;;5011600;28;20120;-74
2023/10/21 01:47:29;;;;;;;90.15;29.30;;;;;;;;;;5011053;28;20116;-74
2023/10/21 01:49:57;;;;;;;108.75;30.45;;;;;;;;;;5010881;28;20033;-74
2023/10/21 01:52:23;;;;;;;120.05;31.77;;;;;;;;;;5010453;28;20110;-74
2023/10/21 01:54:49;;;;;;;95.00;31.13;;;;;;;;;;5010843;28;20120;-74
2023/10/21 01:57:15;;;;;;;98.75;28.83;;;;;;;;;;5010751;28;20112;-74
2023/10/21 01:59:43;;;;;;;110.10;31.73;;;;;;;;;;5011032;28;20038;-74
2023/10/21 02:02:09;;;;;;;98.00;30.23;;;;;;;;;;5009984;28;20495;-74
2023/10/21 02:04:35;;;;;;;79.55;27.42;;;;;;;;;;5010704;28;20090;-74
2023/10/21 02:07:02;;;;;;;70.95;26.98;;;;;;;;;;5009781;28;20480;-73
2023/10/21 02:09:28;;;;;;;103.22;32.30;;;;;;;;;;5009602;28;20149;-73
2023/10/21 02:11:57;;;;;;;93.10;28.88;;;;;;;;;;5011294;28;20053;-73
2023/10/21 02:14:24;;;;;;;103.75;31.52;;;;;;;;;;5010052;28;20037;-73
2023/10/21 02:16:54;;;;;;;133.07;32.15;;;;;;;;;;5009773;28;20033;-74
2023/10/21 02:19:20;;;;;;;86.78;28.30;;;;;;;;;;5009874;28;20064;-73
2023/10/21 02:21:47;;;;;;;94.35;29.48;;;;;;;;;;5010585;28;20492;-73
2023/10/21 02:24:13;;;;;;;95.13;30.10;;;;;;;;;;5010603;28;20022;-73
2023/10/21 02:26:40;;;;;;;80.93;29.88;;;;;;;;;;5009723;28;20106;-73
2023/10/21 02:29:06;;;;;;;118.30;31.38;;;;;;;;;;5010198;28;20037;-73
2023/10/21 02:31:33;;;;;;;114.38;30.35;;;;;;;;;;5009753;28;20123;-74
2023/10/21 02:33:59;;;;;;;105.18;30.15;;;;;;;;;;5010025;28;20145;-73
2023/10/21 02:36:26;;;;;;;105.85;29.20;;;;;;;;;;5009744;28;20092;-73
2023/10/21 02:38:53;;;;;;;125.32;32.30;;;;;;;;;;5009493;28;20042;-73
2023/10/21 02:41:19;;;;;;;107.28;31.23;;;;;;;;;;5009101;28;20021;-74
2023/10/21 02:43:45;;;;;;;121.88;30.55;;;;;;;;;;5009947;28;20029;-74
2023/10/21 02:46:11;;;;;;;99.28;29.25;;;;;;;;;;5007497;28;20151;-74
2023/10/21 02:48:43;;;;;;;122.75;32.08;;;;;;;;;;5009607;28;20879;-74
2023/10/21 02:51:12;;;;;;;89.35;29.08;;;;;;;;;;5009744;28;20030;-74
2023/10/21 02:53:39;;;;;;;100.50;29.65;;;;;;;;;;5009398;28;20033;-74
2023/10/21 02:56:06;;;;;;;104.82;30.25;;;;;;;;;;5003632;28;20436;-74
2023/10/21 02:58:32;;;;;;;105.90;29.20;;;;;;;;;;5010075;28;20527;-74
2023/10/21 03:00:59;;;;;;;104.70;29.13;;;;;;;;;;5006713;28;20116;-74
2023/10/21 03:03:26;;;;;;;125.50;29.42;;;;;;;;;;5009574;28;20029;-73
2023/10/21 03:05:52;;;;;;;74.45;25.75;;;;;;;;;;5007928;28;20025;-73
2023/10/21 03:08:18;;;;;;;85.03;27.13;;;;;;;;;;5008544;28;20030;-74
2023/10/21 03:10:45;;;;;;;97.13;28.60;;;;;;;;;;5009166;28;20396;-74
2023/10/21 03:13:11;;;;;;;107.70;29.92;;;;;;;;;;5009633;28;20496;-74
2023/10/21 03:15:37;;;;;;;71.78;25.35;;;;;;;;;;5009271;28;20037;-74
2023/10/21 03:18:03;;;;;;;82.50;27.42;;;;;;;;;;5008897;28;20033;-74
2023/10/21 03:20:32;;;;;;;88.20;27.45;;;;;;;;;;5007519;28;20040;-73
2023/10/21 03:22:58;;;;;;;90.65;26.17;;;;;;;;;;5009571;28;20124;-73
2023/10/21 03:25:24;;;;;;;108.18;28.17;;;;;;;;;;5008056;28;20116;-73
2023/10/21 03:27:50;;;;;;;80.85;26.67;;;;;;;;;;5009844;28;20092;-73
2023/10/21 03:30:17;;;;;;;80.05;25.45;;;;;;;;;;5010128;28;20033;-73
2023/10/21 03:32:43;;;;;;;104.63;27.70;;;;;;;;;;5008643;28;20511;-73
2023/10/21 03:35:09;;;;;;;82.40;27.20;;;;;;;;;;5003787;28;20076;-73
2023/10/21 03:37:35;;;;;;;83.30;26.95;;;;;;;;;;5009210;28;20029;-74
2023/10/21 03:40:05;;;;;;;75.70;26.92;;;;;;;;;;4990959;28;20467;-73
2023/10/21 03:42:32;;;;;;;83.90;28.65;;;;;;;;;;5009099;28;20076;-74
2023/10/21 03:44:58;;;;;;;107.28;28.05;;;;;;;;;;5010477;28;20038;-74
2023/10/21 03:47:24;;;;;;;83.22;26.67;;;;;;;;;;5008425;28;20038;-74
2023/10/21 03:49:50;;;;;;;76.43;26.40;;;;;;;;;;5009303;28;20136;-74
2023/10/21 03:52:16;;;;;;;75.20;26.52;;;;;;;;;;5006831;28;20603;-74
2023/10/21 03:54:42;;;;;;;58.05;23.92;;;;;;;;;;5008087;28;20038;-74
2023/10/21 03:57:08;;;;;;;81.40;27.02;;;;;;;;;;5009058;28;20048;-74
2023/10/21 03:59:34;;;;;;;136.75;30.20;;;;;;;;;;5008738;28;20407;-74
2023/10/21 04:02:00;;;;;;;93.35;28.33;;;;;;;;;;5009044;28;20029;-73
2023/10/21 04:04:27;;;;;;;61.85;25.25;;;;;;;;;;5006526;28;20030;-73
2023/10/21 04:06:53;;;;;;;66.78;26.02;;;;;;;;;;5008938;28;20087;-73
2023/10/21 04:09:19;;;;;;;84.28;29.00;;;;;;;;;;5008518;28;20041;-73
2023/10/21 04:11:45;;;;;;;94.05;28.85;;;;;;;;;;5008733;28;20577;-73
2023/10/21 04:14:11;;;;;;;88.82;27.75;;;;;;;;;;5009613;28;20826;-73
2023/10/21 04:16:42;;;;;;;73.47;27.60;;;;;;;;;;5008162;28;20566;-73
2023/10/21 04:19:09;;;;;;;79.07;27.27;;;;;;;;;;5008033;28;20053;-74
2023/10/21 04:21:35;;;;;;;104.00;29.13;;;;;;;;;;5007502;28;20030;-73
2023/10/21 04:24:01;;;;;;;94.40;29.10;;;;;;;;;;5007923;28;20076;-74
2023/10/21 04:26:27;;;;;;;71.38;26.45;;;;;;;;;;5006761;28;20641;-75
2023/10/21 04:28:53;;;;;;;72.93;25.92;;;;;;;;;;5005772;28;20507;-74
2023/10/21 04:31:19;;;;;;;81.57;27.95;;;;;;;;;;5007360;28;20716;-74
2023/10/21 04:33:45;;;;;;;82.88;27.73;;;;;;;;;;5007229;28;20040;-74
2023/10/21 04:36:11;;;;;;;102.78;28.55;;;;;;;;;;5008653;28;20492;-74
2023/10/21 04:38:38;;;;;;;107.90;28.98;;;;;;;;;;5008186;28;20024;-74
2023/10/21 04:41:07;;;;;;;65.32;26.85;;;;;;;;;;5008439;28;20033;-74
2023/10/21 04:43:33;;;;;;;70.80;26.95;;;;;;;;;;5007308;28;20030;-75
2023/10/21 04:45:59;;;;;;;99.50;29.27;;;;;;;;;;5009069;28;20067;-74
2023/10/21 04:48:25;;;;;;;75.97;27.23;;;;;;;;;;5008560;28;20033;-74
2023/10/21 04:50:51;;;;;;;72.95;25.35;;;;;;;;;;5024185;28;20040;-74
2023/10/21 04:53:17;;;;;;;74.57;25.38;;;;;;;;;;5008246;28;20205;-74
2023/10/21 04:55:43;;;;;;;68.55;26.95;;;;;;;;;;5006536;28;20038;-74
2023/10/21 04:58:09;;;;;;;79.70;25.67;;;;;;;;;;5006169;28;20074;-74
2023/10/21 05:00:36;;;;;;;71.38;26.67;;;;;;;;;;5009206;28;20034;-74
2023/10/21 05:03:02;;;;;;;62.85;24.45;;;;;;;;;;5006998;28;20043;-75
2023/10/21 05:05:28;;;;;;;62.28;24.58;;;;;;;;;;5007663;28;20045;-75
2023/10/21 05:07:54;;;;;;;95.53;26.75;;;;;;;;;;5008581;28;20030;-74
2023/10/21 05:10:20;;;;;;;73.65;26.52;;;;;;;;;;5007685;28;20540;-74
2023/10/21 05:12:46;;;;;;;75.85;25.50;;;;;;;;;;5022744;28;20502;-74
2023/10/21 05:15:12;;;;;;;85.40;26.35;;;;;;;;;;5004669;28;20572;-74
2023/10/21 05:17:38;;;;;;;65.72;24.95;;;;;;;;;;5006657;28;20049;-74
2023/10/21 05:20:05;;;;;;;70.60;24.85;;;;;;;;;;5007265;28;20065;-74
2023/10/21 05:22:31;;;;;;;74.63;25.35;;;;;;;;;;5023265;28;20041;-75
2023/10/21 05:24:57;;;;;;;71.00;24.42;;;;;;;;;;5008074;28;20893;-74
2023/10/21 05:27:23;;;;;;;68.63;23.92;;;;;;;;;;5007518;28;20644;-74
2023/10/21 05:29:49;;;;;;;76.88;24.33;;;;;;;;;;5008336;28;20133;-74
2023/10/21 05:32:15;;;;;;;65.20;23.02;;;;;;;;;;5011277;28;20393;-74
2023/10/21 05:34:41;;;;;;;82.88;24.08;;;;;;;;;;5011725;28;20057;-74
2023/10/21 05:37:08;;;;;;;70.72;22.42;;;;;;;;;;5011906;28;20491;-74
2023/10/21 05:39:34;;;;;;;59.92;21.58;;;;;;;;;;5011362;28;20044;-74
2023/10/21 05:42:00;;;;;;;68.00;23.30;;;;;;;;;;5011294;28;20568;-74
2023/10/21 05:44:26;;;;;;;59.05;20.83;;;;;;;;;;5011358;28;20057;-74
2023/10/21 05:46:52;;;;;;;79.95;22.67;;;;;;;;;;5010897;28;20041;-74
2023/10/21 05:49:18;;;;;;;111.95;25.40;;;;;;;;;;5011211;28;20044;-74
2023/10/21 05:51:44;;;;;;;124.45;24.58;;;;;;;;;;5011327;28;20043;-74
2023/10/21 05:54:10;;;;;;;78.72;21.80;;;;;;;;;;5011515;28;20493;-74
2023/10/21 05:56:36;;;;;;;68.10;20.13;;;;;;;;;;5010963;28;20381;-74
2023/10/21 05:59:04;;;;;;;46.13;19.10;;;;;;;;;;5011121;28;20634;-74
2023/10/21 06:01:30;;;;;;;55.13;21.23;;;;;;;;;;5006933;28;20041;-74
2023/10/21 06:03:56;;;;;;;52.80;19.10;;;;;;;;;;5010102;28;20587;-74
2023/10/21 06:06:22;;;;;;;54.55;20.23;;;;;;;;;;5011522;28;20048;-75
2023/10/21 06:08:48;;;;;;;63.30;20.65;;;;;;;;;;5010557;28;20141;-74
2023/10/21 06:11:14;;;;;;;56.92;19.08;;;;;;;;;;5010700;28;20069;-74
2023/10/21 06:13:40;;;;;;;47.13;19.73;;;;;;;;;;5010802;28;20104;-74
2023/10/21 06:16:08;;;;;;;56.53;19.05;;;;;;;;;;5011052;28;20116;-74
2023/10/21 06:18:35;;;;;;;54.53;19.58;;;;;;;;;;5025632;28;20032;-74
2023/10/21 06:21:01;;;;;;;69.65;21.50;;;;;;;;;;5010563;28;20025;-74
2023/10/21 06:23:27;;;;;;;50.80;19.70;;;;;;;;;;5010413;28;20038;-74
2023/10/21 06:25:54;;;;;;;39.20;17.85;;;;;;;;;;5010030;28;20463;-74
2023/10/21 06:28:20;;;;;;;39.58;17.88;;;;;;;;;;5011344;28;20462;-74
2023/10/21 06:30:46;;;;;;;49.55;18.20;;;;;;;;;;5025142;28;20040;-74
2023/10/21 06:33:13;;;;;;;42.83;18.90;;;;;;;;;;5009597;28;20038;-74
2023/10/21 06:35:39;;;;;;;45.78;19.35;;;;;;;;;;5025446;28;20026;-74
2023/10/21 06:38:06;;;;;;;46.03;18.15;;;;;;;;;;5009795;28;20060;-74
2023/10/21 06:40:33;;;;;;;44.70;18.83;;;;;;;;;;5010009;28;20030;-74
2023/10/21 06:42:59;;;;;;;49.30;18.95;;;;;;;;;;5009816;28;20391;-74
2023/10/21 06:45:25;;;;;;;38.78;18.08;;;;;;;;;;5009676;28;20030;-74
2023/10/21 06:47:52;;;;;;;47.45;19.10;;;;;;;;;;5010207;28;20425;-74
2023/10/21 06:50:19;;;;;;;46.53;18.67;;;;;;;;;;5026172;28;20029;-74
2023/10/21 06:52:45;;;;;;;38.67;17.45;;;;;;;;;;5009053;28;21767;-74
2023/10/21 06:55:11;;;;;;;40.78;18.45;;;;;;;;;;5009350;28;20034;-74
2023/10/21 06:57:37;;;;;;;41.13;18.08;;;;;;;;;;5010416;28;20033;-74
2023/10/21 07:00:04;;;;;;;45.95;18.92;;;;;;;;;;5009822;28;20992;-74
2023/10/21 07:02:30;;;;;;;45.92;18.60;;;;;;;;;;5009982;28;20998;-74
2023/10/21 07:04:56;;;;;;;40.67;17.40;;;;;;;;;;5010474;28;20061;-74
2023/10/21 07:07:23;;;;;;;43.78;18.48;;;;;;;;;;5010381;28;20033;-74
2023/10/21 07:09:49;;;;;;;39.60;17.63;;;;;;;;;;5010001;28;20132;-74
2023/10/21 07:12:15;;;;;;;39.15;18.70;;;;;;;;;;5010091;28;20037;-74
2023/10/21 07:14:41;;;;;;;36.95;17.80;;;;;;;;;;5010573;28;20070;-74
2023/10/21 07:17:07;;;;;;;39.78;18.75;;;;;;;;;;5009386;28;20362;-74
2023/10/21 07:19:34;;;;;;;36.25;17.60;;;;;;;;;;5009575;28;20102;-74
2023/10/21 07:22:00;;;;;;;39.30;17.42;;;;;;;;;;5009506;28;20037;-74
2023/10/21 07:24:26;;;;;;;40.88;17.92;;;;;;;;;;5008540;28;20043;-74
2023/10/21 07:26:52;;;;;;;39.63;18.85;;;;;;;;;;5008634;28;20484;-74
2023/10/21 07:29:18;;;;;;;39.40;17.90;;;;;;;;;;5009760;28;20076;-74
2023/10/21 07:31:44;;;;;;;34.67;17.88;;;;;;;;;;5008195;28;20045;-74
2023/10/21 07:34:13;;;;;;;30.25;16.30;;;;;;;;;;5008710;28;20045;-74
2023/10/21 07:36:39;;;;;;;40.70;17.63;;;;;;;;;;5009859;28;20038;-74
2023/10/21 07:39:05;;;;;;;39.10;17.55;;;;;;;;;;5008970;28;20958;-74
2023/10/21 07:41:32;;;;;;;32.22;16.80;;;;;;;;;;5009138;28;20045;-74
2023/10/21 07:43:59;;;;;;;35.47;17.15;;;;;;;;;;5009717;28;20075;-74
2023/10/21 07:46:25;;;;;;;38.92;18.35;;;;;;;;;;5006642;28;20042;-74
2023/10/21 07:48:51;;;;;;;47.55;18.90;;;;;;;;;;5009261;28;20045;-74
2023/10/21 07:51:18;;;;;;;41.80;18.27;;;;;;;;;;5009186;28;20420;-74
2023/10/21 07:53:44;;;;;;;46.88;19.23;;;;;;;;;;5009414;28;20152;-74
2023/10/21 07:56:10;;;;;;;41.47;19.30;;;;;;;;;;5009279;28;21848;-74
2023/10/21 07:58:38;;;;;;;40.30;18.35;;;;;;;;;;4994074;28;20870;-74
2023/10/21 08:01:05;;;;;;;37.28;19.25;;;;;;;;;;5008498;28;20033;-74
2023/10/21 08:03:34;;;;;;;39.13;18.10;;;;;;;;;;5007341;28;20037;-74
2023/10/21 08:06:00;;;;;;;39.13;18.38;;;;;;;;;;5008139;28;20029;-74
2023/10/21 08:08:28;;;;;;;40.45;18.90;;;;;;;;;;5008707;28;20029;-74
2023/10/21 08:11:03;;;;;;;41.35;19.38;;;;;;;;;;5007413;28;20026;-74
2023/10/21 08:13:32;;;;;;;39.40;18.92;;;;;;;;;;5008272;28;20871;-74
2023/10/21 08:15:59;;;;;;;40.53;19.08;;;;;;;;;;5008200;28;20076;-74
2023/10/21 08:18:25;;;;;;;46.83;20.55;;;;;;;;;;5006393;28;20503;-74
2023/10/21 08:20:52;;;;;;;36.58;18.20;;;;;;;;;;5007889;28;20033;-74
2023/10/21 08:23:18;;;;;;;38.55;20.10;;;;;;;;;;5007582;28;20044;-75
2023/10/21 08:25:44;;;;;;;42.38;19.67;;;;;;;;;;5007902;28;20045;-75
2023/10/21 08:28:11;;;;;;;37.65;18.10;;;;;;;;;;5007594;28;20034;-74
2023/10/21 08:30:37;;;;;;;39.20;19.17;;;;;;;;;;5008055;28;20038;-74
2023/10/21 08:33:05;;;;;;;47.47;20.88;;;;;;;;;;5007264;28;20029;-74
2023/10/21 08:35:32;;;;;;;40.28;19.38;;;;;;;;;;5008167;28;20029;-74
2023/10/21 08:37:58;;;;;;;36.65;17.90;;;;;;;;;;5008219;28;20037;-74
2023/10/21 08:40:25;;;;;;;40.08;19.25;;;;;;;;;;5008344;28;20113;-74
2023/10/21 08:42:51;;;;;;;33.97;18.25;;;;;;;;;;5008094;28;20039;-74
2023/10/21 08:45:19;;;;;;;37.05;18.30;;;;;;;;;;5008085;28;20072;-74
2023/10/21 08:47:46;;;;;;;39.13;18.92;;;;;;;;;;5007525;28;20038;-74
2023/10/21 08:50:15;;;;;;;31.27;19.08;;;;;;;;;;5006860;28;20979;-74
2023/10/21 08:52:41;;;;;;;34.75;19.65;;;;;;;;;;5007377;28;20527;-74
2023/10/21 08:55:07;;;;;;;34.47;17.67;;;;;;;;;;5007692;28;20038;-74
2023/10/21 08:57:34;;;;;;;37.92;19.05;;;;;;;;;;5008239;28;20045;-74
2023/10/21 09:00:00;;;;;;;43.42;20.35;;;;;;;;;;5007312;28;20438;-74
2023/10/21 09:02:26;;;;;;;33.22;17.80;;;;;;;;;;5007476;28;20048;-74
2023/10/21 09:04:52;;;;;;;39.28;20.00;;;;;;;;;;5007501;28;20095;-74
2023/10/21 09:07:18;;;;;;;29.42;16.25;;;;;;;;;;5008269;28;20029;-74
2023/10/21 09:09:45;;;;;;;33.25;17.80;;;;;;;;;;5010795;28;20025;-74
2023/10/21 09:12:13;;;;;;;30.73;17.00;;;;;;;;;;5009334;28;20037;-74
2023/10/21 09:14:59;;;;;;;33.75;18.40;;;;;;;;;;5010635;28;20034;-74
2023/10/21 09:17:41;;;;;;;26.65;14.80;;;;;;;;;;5009189;28;20741;-74
2023/10/21 09:20:09;;;;;;;31.85;17.33;;;;;;;;;;5010229;28;20121;-74
2023/10/21 09:22:36;;;;;;;25.25;14.65;;;;;;;;;;5010939;28;20035;-74
2023/10/21 09:25:09;;;;;;;24.02;16.58;;;;;;;;;;5005700;28;20033;-74
2023/10/21 09:27:35;;;;;;;24.88;14.27;;;;;;;;;;5009615;28;20044;-74
2023/10/21 09:30:01;;;;;;;27.95;14.57;;;;;;;;;;5010684;28;20052;-74
2023/10/21 09:32:33;;;;;;;24.90;13.05;;;;;;;;;;5011284;28;20045;-74
2023/10/21 09:35:23;;;;;;;32.63;16.15;;;;;;;;;;5011611;28;20029;-74
2023/10/21 09:37:49;;;;;;;18.00;11.57;;;;;;;;;;5010820;28;20017;-74
2023/10/21 09:40:16;;;;;;;23.90;12.68;;;;;;;;;;5011027;28;20072;-74
2023/10/21 09:42:42;;;;;;;23.05;11.98;;;;;;;;;;5009229;28;20049;-75
2023/10/21 09:45:09;;;;;;;19.95;11.15;;;;;;;;;;5010221;28;20044;-74
2023/10/21 09:47:38;;;;;;;25.05;11.43;;;;;;;;;;5010447;28;20092;-74
2023/10/21 09:50:06;;;;;;;14.88;7.90;;;;;;;;;;5012221;28;20137;-75
2023/10/21 09:52:39;;;;;;;15.52;9.63;;;;;;;;;;5010458;28;20144;-74
2023/10/21 09:55:08;;;;;;;20.73;9.52;;;;;;;;;;5011437;28;20037;-74
2023/10/21 09:57:38;;;;;;;19.10;9.82;;;;;;;;;;5011816;28;20029;-74
2023/10/21 10:00:08;;;;;;;16.65;9.45;;;;;;;;;;5010968;28;20036;-74
2023/10/21 10:02:38;;;;;;;15.73;8.63;;;;;;;;;;5010888;28;20056;-74
2023/10/21 10:05:11;;;;;;;13.00;8.27;;;;;;;;;;5010834;28;20037;-74
2023/10/21 10:07:39;;;;;;;16.20;8.57;;;;;;;;;;5010729;28;20033;-74
2023/10/21 10:10:06;;;;;;;13.43;7.05;;;;;;;;;;5011454;28;20025;-74
2023/10/21 10:12:37;;;;;;;16.83;6.57;;;;;;;;;;5009872;28;20038;-74
2023/10/21 10:15:22;;;;;;;12.77;7.03;;;;;;;;;;5009175;28;20054;-75
2023/10/21 10:17:51;;;;;;;14.48;6.97;;;;;;;;;;5008865;28;20420;-74
2023/10/21 10:20:20;;;;;;;11.50;5.75;;;;;;;;;;5010192;28;20030;-74
2023/10/21 10:22:52;;;;;;;13.88;6.60;;;;;;;;;;5010107;28;20029;-74
2023/10/21 10:25:25;;;;;;;17.05;7.38;;;;;;;;;;5009522;28;20048;-74
2023/10/21 10:27:56;;;;;;;9.88;5.00;;;;;;;;;;5010220;28;20091;-74
2023/10/21 10:30:22;;;;;;;11.68;5.10;;;;;;;;;;5010538;28;20874;-74
2023/10/21 10:32:52;;;;;;;14.15;7.00;;;;;;;;;;5011153;28;20037;-74
2023/10/21 10:35:31;;;;;;;17.10;7.22;;;;;;;;;;5010891;28;20034;-74
2023/10/21 10:38:01;;;;;;;12.65;6.20;;;;;;;;;;5010552;28;20029;-74
2023/10/21 10:40:34;;;;;;;13.40;6.68;;;;;;;;;;5010667;28;20048;-74
2023/10/21 10:43:00;;;;;;;10.50;5.72;;;;;;;;;;5009627;28;20041;-74
2023/10/21 10:45:26;;;;;;;13.02;6.57;;;;;;;;;;5009989;28;20030;-74
2023/10/21 10:48:02;;;;;;;11.07;6.57;;;;;;;;;;5008384;28;20029;-74
2023/10/21 10:50:29;;;;;;;17.08;6.15;;;;;;;;;;5009567;28;20036;-74
2023/10/21 10:52:55;;;;;;;9.00;5.13;;;;;;;;;;5007918;28;20124;-75
2023/10/21 10:55:22;;;;;;;13.40;6.10;;;;;;;;;;5008484;28;20120;-74
2023/10/21 10:57:49;;;;;;;10.90;5.45;;;;;;;;;;5008694;28;20034;-74
2023/10/21 11:00:22;;;;;;;14.05;5.18;;;;;;;;;;5008471;28;20029;-74
2023/10/21 11:02:49;;;;;;;8.27;4.50;;;;;;;;;;5009514;28;20029;-74
2023/10/21 11:05:22;;;;;;;6.75;3.90;;;;;;;;;;5009499;28;20515;-74
2023/10/21 11:07:50;;;;;;;7.88;4.13;;;;;;;;;;5008339;28;20029;-73
2023/10/21 11:10:20;;;;;;;4.53;2.38;;;;;;;;;;5008991;28;20096;-73
2023/10/21 11:12:46;;;;;;;6.35;2.63;;;;;;;;;;5009256;28;20475;-75
2023/10/21 11:15:12;;;;;;;6.55;2.20;;;;;;;;;;5010106;28;20072;-73
2023/10/21 11:17:39;;;;;;;7.97;2.60;;;;;;;;;;5009594;28;20026;-72
2023/10/21 11:20:07;;;;;;;9.63;2.95;;;;;;;;;;5010319;28;20401;-74
2023/10/21 11:22:33;;;;;;;7.97;2.78;;;;;;;;;;5010245;28;20155;-74
2023/10/21 11:24:59;;;;;;;8.55;2.63;;;;;;;;;;5008798;28;20540;-75
2023/10/21 11:27:26;;;;;;;5.78;2.97;;;;;;;;;;5008854;28;20163;-74
2023/10/21 11:29:52;;;;;;;6.10;2.72;;;;;;;;;;5009024;28;20072;-75
2023/10/21 11:32:28;;;;;;;7.85;2.47;;;;;;;;;;5009894;28;20408;-74
2023/10/21 11:34:55;;;;;;;5.30;2.30;;;;;;;;;;5011225;28;20115;-74
2023/10/21 11:37:21;;;;;;;5.07;2.45;;;;;;;;;;5010234;28;20033;-74
2023/10/21 11:39:51;;;;;;;7.22;2.67;;;;;;;;;;5009028;28;20060;-73
2023/10/21 11:42:18;;;;;;;6.45;2.47;;;;;;;;;;5009184;28;20069;-74
2023/10/21 11:44:57;;;;;;;4.53;2.03;;;;;;;;;;5009492;28;20033;-73
2023/10/21 11:47:24;;;;;;;4.95;1.60;;;;;;;;;;5009704;28;20599;-74
2023/10/21 11:49:53;;;;;;;4.07;1.60;;;;;;;;;;5009599;28;20033;-74
2023/10/21 11:52:21;;;;;;;4.70;1.95;;;;;;;;;;5007866;28;20037;-73
2023/10/21 11:54:48;;;;;;;5.63;1.73;;;;;;;;;;5008605;28;20047;-73
2023/10/21 12:30:19;;;;;;;4.25;1.17;;;;;;;;;;5008207;28;20032;-73
2023/10/21 12:40:32;;;;;;;6.78;1.23;;;;;;;;;;5016585;28;21796;-73
2023/10/21 12:45:48;;;;;;;4.95;1.10;;;;;;;;;;5012667;28;20042;-73
2023/10/21 12:48:17;;;;;;;3.55;1.10;;;;;;;;;;5010929;28;20068;-73
2023/10/21 12:50:43;;;;;;;1.58;0.80;;;;;;;;;;5010948;28;21048;-72
2023/10/21 12:53:10;;;;;;;2.75;0.80;;;;;;;;;;5011221;28;20072;-72
2023/10/21 12:55:37;;;;;;;3.97;0.90;;;;;;;;;;5011268;28;20132;-72
2023/10/21 12:58:03;;;;;;;2.08;0.90;;;;;;;;;;5012682;28;20076;-72
2023/10/21 13:00:32;;;;;;;4.57;1.13;;;;;;;;;;5010743;28;20402;-72
2023/10/21 13:02:58;;;;;;;1.60;0.70;;;;;;;;;;5012030;28;20048;-72
2023/10/21 13:05:24;;;;;;;5.38;1.00;;;;;;;;;;5010725;28;20033;-72
2023/10/21 13:07:51;;;;;;;3.22;0.93;;;;;;;;;;5010445;28;20127;-72
2023/10/21 13:10:17;;;;;;;4.20;1.00;;;;;;;;;;5011774;28;20029;-72
2023/10/21 13:12:43;;;;;;;3.40;0.90;;;;;;;;;;5011710;28;20163;-72
2023/10/21 13:15:12;;;;;;;4.78;0.88;;;;;;;;;;5012459;28;20044;-71
2023/10/21 13:17:39;;;;;;;2.00;0.82;;;;;;;;;;5011519;28;20025;-71
2023/10/21 13:20:13;;;;;;;3.45;0.80;;;;;;;;;;5011955;28;20117;-71
2023/10/21 13:22:39;;;;;;;3.50;0.88;;;;;;;;;;5012570;28;20037;-71
2023/10/21 13:25:07;;;;;;;6.57;0.80;;;;;;;;;;5011019;28;20095;-71
2023/10/21 13:27:34;;;;;;;5.22;1.08;;;;;;;;;;5011339;28;20029;-71
2023/10/21 13:30:00;;;;;;;8.32;1.00;;;;;;;;;;5011589;28;20072;-71
2023/10/21 13:32:27;;;;;;;3.58;0.80;;;;;;;;;;5011354;28;20037;-71
2023/10/21 13:34:54;;;;;;;2.55;0.93;;;;;;;;;;5009607;28;20029;-71
2023/10/21 13:37:20;;;;;;;4.07;0.75;;;;;;;;;;5010037;28;20041;-71
2023/10/21 13:39:47;;;;;;;3.60;1.00;;;;;;;;;;5011421;28;21018;-71
2023/10/21 13:42:13;;;;;;;2.78;0.73;;;;;;;;;;5010133;28;20045;-72
2023/10/21 13:44:39;;;;;;;4.68;0.77;;;;;;;;;;5011145;28;20875;-71
2023/10/21 13:47:08;;;;;;;4.22;0.93;;;;;;;;;;5011648;28;20599;-71
2023/10/21 13:49:43;;;;;;;3.15;1.00;;;;;;;;;;5011464;28;20059;-70
2023/10/21 13:52:09;;;;;;;5.78;1.10;;;;;;;;;;5010266;28;20485;-71
2023/10/21 13:54:35;;;;;;;4.53;1.00;;;;;;;;;;5012102;28;20029;-71
2023/10/21 13:57:04;;;;;;;5.35;1.08;;;;;;;;;;5009643;28;20203;-70
2023/10/21 13:59:30;;;;;;;6.28;1.15;;;;;;;;;;5009996;28;20955;-71
2023/10/21 14:01:57;;;;;;;5.47;1.17;;;;;;;;;;5010767;28;20038;-71
2023/10/21 14:04:25;;;;;;;2.55;1.02;;;;;;;;;;5010713;28;20044;-71
2023/10/21 14:06:52;;;;;;;5.57;1.38;;;;;;;;;;5010809;28;20535;-70
2023/10/21 14:09:24;;;;;;;5.53;1.08;;;;;;;;;;5010894;28;21833;-71
2023/10/21 14:11:54;;;;;;;7.27;1.60;;;;;;;;;;5010067;28;20813;-71
2023/10/21 14:14:20;;;;;;;4.88;1.42;;;;;;;;;;5009997;28;20075;-71
2023/10/21 14:16:46;;;;;;;4.55;1.08;;;;;;;;;;5009830;28;20045;-70
2023/10/21 14:19:12;;;;;;;4.72;1.15;;;;;;;;;;5010090;28;20044;-70
2023/10/21 14:21:38;;;;;;;3.80;1.08;;;;;;;;;;5010628;28;20060;-70
2023/10/21 14:24:06;;;;;;;6.53;1.23;;;;;;;;;;5010018;28;20026;-70
2023/10/21 14:26:32;;;;;;;4.40;1.20;;;;;;;;;;5009464;28;20037;-70
2023/10/21 14:28:58;;;;;;;6.63;1.00;;;;;;;;;;5009980;28;20040;-70
2023/10/21 14:31:31;;;;;;;7.13;1.10;;;;;;;;;;5010589;28;20590;-70
2023/10/21 14:33:57;;;;;;;6.32;1.13;;;;;;;;;;5009628;28;20036;-70
2023/10/21 14:36:23;;;;;;;3.88;1.00;;;;;;;;;;5009030;28;20029;-70
2023/10/21 14:38:50;;;;;;;3.40;1.00;;;;;;;;;;5008856;28;20026;-70
2023/10/21 14:41:16;;;;;;;5.07;1.55;;;;;;;;;;5007693;28;20034;-70
2023/10/21 14:43:42;;;;;;;3.67;1.40;;;;;;;;;;5009699;28;20038;-69
2023/10/21 14:46:09;;;;;;;6.90;0.90;;;;;;;;;;5010057;28;20115;-69
2023/10/21 14:48:35;;;;;;;7.20;1.02;;;;;;;;;;5009341;28;20029;-70
2023/10/21 14:51:02;;;;;;;6.28;1.33;;;;;;;;;;5009627;28;20046;-70
2023/10/21 14:53:28;;;;;;;3.25;0.80;;;;;;;;;;5009575;28;20755;-69
2023/10/21 14:55:54;;;;;;;1.92;0.80;;;;;;;;;;5008990;28;20075;-69
2023/10/21 14:58:25;;;;;;;4.25;1.20;;;;;;;;;;5009631;28;20037;-69
2023/10/21 15:00:52;;;;;;;6.85;1.02;;;;;;;;;;5009043;28;20041;-69
2023/10/21 15:03:21;;;;;;;6.32;1.42;;;;;;;;;;5008797;28;20122;-69
2023/10/21 15:05:48;;;;;;;5.22;1.30;;;;;;;;;;5009393;28;20560;-69
2023/10/21 15:08:19;;;;;;;3.30;0.85;;;;;;;;;;5008736;28;20120;-69